Time;durP1;ratioP1;P1;durP2;ratioP2;P2;SDS_P1;SDS_P2;PMS_P1;PMS_P2;Temp;Humidity;BMP_temperature;BMP_pressure;BME280_temperature;BME280_humidity;BME280_pressure;Samples;Min_cycle;Max_cycle;Signal;HPM_P1;HPM_P2
2022/07/07 06:03:32;;;;;;;3.08;2.63;;;;;;;;;;6166760;23;20078;-86
2022/07/07 06:05:57;;;;;;;3.28;2.45;;;;;;;;;;6216734;23;20013;-86
2022/07/07 06:08:23;;;;;;;3.45;3.15;;;;;;;;;;6216786;23;20005;-85
2022/07/07 06:10:48;;;;;;;2.78;2.58;;;;;;;;;;6216747;23;20028;-89
2022/07/07 06:13:14;;;;;;;3.17;2.97;;;;;;;;;;6216740;23;20005;-85
2022/07/07 09:28:02;;;;;;;3.35;3.00;;;;;;;;;;6165480;23;20419;-88
2022/07/07 09:30:37;;;;;;;3.90;3.50;;;;;;;;;;6215720;23;20009;-89
2022/07/07 09:33:10;;;;;;;4.05;3.65;;;;;;;;;;6190789;23;20379;-86
2022/07/07 09:38:24;;;;;;;5.72;3.83;;;;;;;;;;6217142;23;20084;-87
2022/07/07 09:41:04;;;;;;;4.28;3.88;;;;;;;;;;6217742;23;20416;-88
2022/07/07 09:43:32;;;;;;;4.13;3.72;;;;;;;;;;6216821;23;20005;-84
2022/07/07 09:46:16;;;;;;;4.07;3.77;;;;;;;;;;6216831;23;20020;-83
2022/07/07 09:48:47;;;;;;;3.45;3.15;;;;;;;;;;6217033;23;20227;-84
2022/07/07 09:51:15;;;;;;;4.35;2.90;;;;;;;;;;6216290;23;20011;-84
2022/07/07 09:53:56;;;;;;;3.42;3.22;;;;;;;;;;6216467;23;20082;-84
2022/07/07 09:56:28;;;;;;;3.30;3.00;;;;;;;;;;6216707;23;20004;-82
2022/07/07 09:58:54;;;;;;;6.32;3.58;;;;;;;;;;6216628;23;20001;-81
2022/07/07 10:01:24;;;;;;;5.10;3.33;;;;;;;;;;6216465;23;20001;-80
2022/07/07 10:03:54;;;;;;;3.05;2.85;;;;;;;;;;6216505;23;20494;-82
2022/07/07 10:06:20;;;;;;;4.97;3.10;;;;;;;;;;6216694;23;20004;-81
2022/07/07 10:08:50;;;;;;;3.50;3.20;;;;;;;;;;6216556;23;20434;-80
2022/07/07 10:11:16;;;;;;;3.53;2.80;;;;;;;;;;6216232;23;20008;-80
2022/07/07 10:13:44;;;;;;;3.95;3.22;;;;;;;;;;6216638;23;20028;-79
2022/07/07 10:16:10;;;;;;;3.92;3.10;;;;;;;;;;6216602;23;20412;-80
2022/07/07 10:18:36;;;;;;;3.72;3.28;;;;;;;;;;6216409;23;20028;-80
2022/07/07 10:21:02;;;;;;;3.85;3.55;;;;;;;;;;6216227;23;19997;-78
2022/07/07 10:23:29;;;;;;;4.30;3.60;;;;;;;;;;6216293;23;20428;-82
2022/07/07 10:26:00;;;;;;;3.75;3.45;;;;;;;;;;6216375;23;20059;-84
2022/07/07 10:28:50;;;;;;;4.65;3.35;;;;;;;;;;6216255;23;20040;-83
2022/07/07 10:31:21;;;;;;;4.18;3.08;;;;;;;;;;6216271;23;20010;-82
2022/07/07 10:33:53;;;;;;;3.00;2.80;;;;;;;;;;6216413;23;20001;-82
2022/07/07 10:36:19;;;;;;;3.35;3.05;;;;;;;;;;6215984;23;20088;-85
2022/07/07 10:38:45;;;;;;;3.10;2.90;;;;;;;;;;6216434;23;20008;-86
2022/07/07 10:41:11;;;;;;;3.33;3.00;;;;;;;;;;6216621;23;20051;-85
2022/07/07 10:43:43;;;;;;;3.05;2.85;;;;;;;;;;6216178;23;20418;-85
2022/07/07 10:46:09;;;;;;;3.22;2.90;;;;;;;;;;6216354;23;20001;-86
2022/07/07 10:48:46;;;;;;;3.80;2.40;;;;;;;;;;6216057;23;20076;-87
2022/07/07 10:51:24;;;;;;;4.50;3.00;;;;;;;;;;6216580;23;20005;-88
2022/07/07 10:54:06;;;;;;;3.00;2.80;;;;;;;;;;6216060;23;20079;-84
2022/07/07 10:56:53;;;;;;;4.43;2.90;;;;;;;;;;6215865;23;20091;-83
2022/07/07 10:59:20;;;;;;;4.22;2.47;;;;;;;;;;6216156;23;20008;-82
2022/07/07 11:02:01;;;;;;;3.85;2.40;;;;;;;;;;6216102;23;20004;-82
2022/07/07 11:04:42;;;;;;;7.63;2.88;;;;;;;;;;6189746;23;20004;-83
2022/07/07 11:07:16;;;;;;;2.47;2.20;;;;;;;;;;6216079;23;20005;-82
2022/07/07 11:10:11;;;;;;;4.10;2.63;;;;;;;;;;6216142;23;20055;-82
2022/07/07 11:12:52;;;;;;;4.35;2.53;;;;;;;;;;6197297;23;20015;-83
2022/07/07 11:15:20;;;;;;;2.88;2.67;;;;;;;;;;6215954;23;20028;-84
2022/07/07 11:17:52;;;;;;;2.78;2.58;;;;;;;;;;6216000;23;20318;-83
2022/07/07 11:20:20;;;;;;;6.75;3.30;;;;;;;;;;6189405;23;20008;-84
2022/07/07 11:22:48;;;;;;;3.63;2.75;;;;;;;;;;6215867;23;20000;-83
2022/07/07 11:25:17;;;;;;;3.25;2.45;;;;;;;;;;6216055;23;20336;-82
2022/07/07 11:27:42;;;;;;;2.88;2.45;;;;;;;;;;6215926;23;20009;-82
2022/07/07 11:30:09;;;;;;;2.50;2.17;;;;;;;;;;6215916;23;20024;-81
2022/07/07 11:32:39;;;;;;;2.63;2.42;;;;;;;;;;6215721;23;20015;-84
2022/07/07 11:35:07;;;;;;;3.20;2.83;;;;;;;;;;6215857;23;20039;-84
2022/07/07 11:37:33;;;;;;;3.08;2.60;;;;;;;;;;6216328;23;20001;-86
2022/07/07 11:39:59;;;;;;;4.60;3.00;;;;;;;;;;6215878;23;20327;-85
2022/07/07 11:42:26;;;;;;;3.97;2.22;;;;;;;;;;6189068;23;20004;-85
2022/07/07 16:11:52;;;;;;;4.68;3.10;;;;;;;;;;6197526;23;20098;-85
2022/07/07 16:14:18;;;;;;;62.13;8.75;;;;;;;;;;6217837;23;20008;-88
2022/07/07 16:16:44;;;;;;;11.65;3.70;;;;;;;;;;6218020;23;20508;-83
2022/07/07 16:19:10;;;;;;;4.90;4.35;;;;;;;;;;6217724;23;20001;-84
2022/07/07 16:21:38;;;;;;;3.80;3.00;;;;;;;;;;6217668;23;20042;-82
2022/07/07 16:24:04;;;;;;;3.42;3.10;;;;;;;;;;6217809;23;20004;-82
2022/07/07 16:26:30;;;;;;;3.63;3.33;;;;;;;;;;6217792;23;20000;-82
2022/07/07 16:28:56;;;;;;;4.78;4.25;;;;;;;;;;6217645;23;20365;-82
2022/07/07 16:31:24;;;;;;;4.45;3.95;;;;;;;;;;6217484;23;20039;-81
2022/07/07 16:33:50;;;;;;;3.92;3.63;;;;;;;;;;6191257;23;20008;-83
2022/07/07 16:36:16;;;;;;;5.68;3.30;;;;;;;;;;6217848;23;20016;-89
2022/07/07 16:38:41;;;;;;;3.25;3.05;;;;;;;;;;6217468;23;20031;-81
2022/07/07 16:41:07;;;;;;;4.60;3.30;;;;;;;;;;6191104;23;20011;-86
2022/07/07 16:43:33;;;;;;;4.10;2.53;;;;;;;;;;6217782;23;20027;-82
2022/07/07 16:46:00;;;;;;;3.13;2.92;;;;;;;;;;6217799;23;20055;-86
2022/07/07 16:48:26;;;;;;;3.50;3.17;;;;;;;;;;6217810;23;20008;-92
2022/07/07 16:50:52;;;;;;;3.20;3.00;;;;;;;;;;6217865;23;20471;-84
2022/07/07 16:53:19;;;;;;;2.88;2.67;;;;;;;;;;6218298;23;20005;-91
2022/07/07 16:55:44;;;;;;;6.75;3.15;;;;;;;;;;6219533;23;20011;-89
2022/07/07 16:58:10;;;;;;;3.97;3.10;;;;;;;;;;6217575;23;20079;-82
2022/07/07 17:00:35;;;;;;;3.28;2.88;;;;;;;;;;6217679;23;20012;-85
2022/07/07 17:03:01;;;;;;;3.05;2.85;;;;;;;;;;6217681;23;20060;-84
2022/07/07 17:05:26;;;;;;;3.35;3.05;;;;;;;;;;6217162;23;20009;-81
2022/07/07 17:07:52;;;;;;;3.05;2.78;;;;;;;;;;6217559;23;20000;-90
2022/07/07 17:10:18;;;;;;;4.35;3.33;;;;;;;;;;6217044;23;20001;-82
2022/07/07 17:12:43;;;;;;;3.85;3.55;;;;;;;;;;6217713;23;20024;-83
2022/07/07 17:15:09;;;;;;;5.30;4.60;;;;;;;;;;6216882;23;20012;-84
2022/07/07 17:17:35;;;;;;;3.33;3.05;;;;;;;;;;6217488;23;20377;-86
2022/07/07 17:20:01;;;;;;;3.00;2.80;;;;;;;;;;6216891;23;20031;-84
2022/07/07 17:22:26;;;;;;;2.88;2.67;;;;;;;;;;6217860;23;20408;-84
2022/07/07 17:24:52;;;;;;;3.67;3.28;;;;;;;;;;6217401;23;20071;-86
2022/07/07 17:27:17;;;;;;;3.22;3.03;;;;;;;;;;6217080;23;20491;-82
2022/07/07 17:29:43;;;;;;;4.40;3.03;;;;;;;;;;6217093;23;20328;-87
2022/07/07 17:32:09;;;;;;;2.88;2.67;;;;;;;;;;6217274;23;20009;-88
2022/07/07 17:34:35;;;;;;;3.38;2.97;;;;;;;;;;6217270;23;20008;-92
2022/07/07 17:37:01;;;;;;;5.50;3.20;;;;;;;;;;6217027;23;20011;-90
2022/07/07 17:39:26;;;;;;;3.13;2.85;;;;;;;;;;6216510;23;20004;-88
2022/07/07 17:41:52;;;;;;;2.75;2.50;;;;;;;;;;6217501;23;20005;-93
2022/07/07 17:44:18;;;;;;;9.68;7.80;;;;;;;;;;6190454;23;20328;-92
2022/07/07 17:46:43;;;;;;;6.50;5.28;;;;;;;;;;6190707;23;20004;-90
2022/07/07 17:49:09;;;;;;;7.13;4.97;;;;;;;;;;6217114;23;20051;-89
2022/07/07 17:51:34;;;;;;;4.50;3.90;;;;;;;;;;6190696;23;20016;-94
2022/07/07 17:54:01;;;;;;;6.18;5.20;;;;;;;;;;6217165;23;20004;-92
2022/07/07 17:56:26;;;;;;;13.98;10.93;;;;;;;;;;6190382;23;20037;-88
2022/07/07 17:58:52;;;;;;;11.30;8.40;;;;;;;;;;6216815;23;20027;-84
2022/07/07 18:01:17;;;;;;;42.70;22.33;;;;;;;;;;6216681;23;20012;-83
2022/07/07 18:03:43;;;;;;;14.65;6.97;;;;;;;;;;6216771;23;20015;-84
2022/07/07 18:06:08;;;;;;;4.78;3.55;;;;;;;;;;6216632;23;20419;-83
2022/07/07 18:08:35;;;;;;;3.78;3.47;;;;;;;;;;6216535;23;20005;-84
2022/07/07 18:11:00;;;;;;;3.47;3.03;;;;;;;;;;6216362;23;20416;-84
2022/07/07 18:13:26;;;;;;;3.60;3.30;;;;;;;;;;6216202;23;20015;-85
2022/07/07 18:15:51;;;;;;;3.47;2.90;;;;;;;;;;6216339;23;20008;-84
2022/07/07 18:18:17;;;;;;;3.63;3.33;;;;;;;;;;6216134;23;20008;-84
2022/07/07 18:20:43;;;;;;;3.10;2.90;;;;;;;;;;6216542;23;20004;-82
2022/07/07 18:23:09;;;;;;;2.92;2.70;;;;;;;;;;6189781;23;20360;-82
2022/07/07 18:25:35;;;;;;;3.42;2.97;;;;;;;;;;6216618;23;20039;-83
2022/07/07 18:28:01;;;;;;;3.78;3.22;;;;;;;;;;6216485;23;20075;-84
2022/07/07 18:30:27;;;;;;;3.30;3.10;;;;;;;;;;6216154;23;20020;-82
2022/07/07 18:32:53;;;;;;;4.55;3.90;;;;;;;;;;6216461;23;20005;-81
2022/07/07 18:35:19;;;;;;;3.60;3.30;;;;;;;;;;6216236;23;20058;-85
2022/07/07 18:37:44;;;;;;;3.53;3.05;;;;;;;;;;6216100;23;20419;-86
2022/07/07 18:40:10;;;;;;;4.68;4.13;;;;;;;;;;6216285;23;20011;-84
2022/07/07 18:42:35;;;;;;;3.97;3.60;;;;;;;;;;6216495;23;20035;-86
2022/07/07 18:45:01;;;;;;;3.70;3.40;;;;;;;;;;6189526;23;20059;-86
2022/07/07 18:47:26;;;;;;;4.13;3.80;;;;;;;;;;6216376;23;20375;-85
2022/07/07 18:49:52;;;;;;;4.65;4.35;;;;;;;;;;6216337;23;20308;-86
2022/07/07 18:52:17;;;;;;;3.90;3.55;;;;;;;;;;6216272;23;20008;-89
2022/07/07 18:54:43;;;;;;;3.50;3.20;;;;;;;;;;6216462;23;20087;-84
2022/07/07 18:57:10;;;;;;;3.65;3.35;;;;;;;;;;6216237;23;20005;-88
2022/07/07 18:59:36;;;;;;;3.20;2.90;;;;;;;;;;6189299;23;20042;-82
2022/07/07 19:02:01;;;;;;;3.70;3.40;;;;;;;;;;6216182;23;20001;-83
2022/07/07 19:04:28;;;;;;;3.50;3.20;;;;;;;;;;6215904;23;20003;-82
2022/07/07 19:06:53;;;;;;;4.45;4.07;;;;;;;;;;6216135;23;20320;-82
2022/07/07 19:09:19;;;;;;;5.20;4.80;;;;;;;;;;6216515;23;20060;-82
2022/07/07 19:11:45;;;;;;;3.60;3.30;;;;;;;;;;6216664;23;20016;-82
2022/07/07 19:14:12;;;;;;;3.70;3.30;;;;;;;;;;6189263;23;20021;-83
2022/07/07 19:16:44;;;;;;;4.43;3.70;;;;;;;;;;6215827;23;20018;-83
2022/07/07 19:19:10;;;;;;;3.50;3.20;;;;;;;;;;6216258;23;20036;-83
2022/07/07 19:21:39;;;;;;;3.70;3.00;;;;;;;;;;6215923;23;20335;-81
2022/07/07 19:24:06;;;;;;;3.25;2.95;;;;;;;;;;6217549;23;20035;-82
2022/07/07 19:26:32;;;;;;;3.47;3.28;;;;;;;;;;6218017;23;19997;-82
2022/07/07 19:28:57;;;;;;;4.20;3.80;;;;;;;;;;6218006;23;19997;-81
2022/07/07 19:31:23;;;;;;;4.10;3.20;;;;;;;;;;6218037;23;20340;-83
2022/07/07 19:33:49;;;;;;;3.50;3.20;;;;;;;;;;6218206;23;20327;-83
2022/07/07 19:36:15;;;;;;;4.00;3.33;;;;;;;;;;6218128;23;20062;-82
2022/07/07 19:38:41;;;;;;;3.22;3.03;;;;;;;;;;6217937;23;20001;-83
2022/07/07 19:41:08;;;;;;;3.47;3.10;;;;;;;;;;6218264;23;20009;-83
2022/07/07 19:43:35;;;;;;;3.78;3.33;;;;;;;;;;6191508;23;20031;-83
2022/07/07 19:46:00;;;;;;;4.03;3.60;;;;;;;;;;6218172;23;19997;-83
2022/07/07 19:48:26;;;;;;;3.85;3.55;;;;;;;;;;6217838;23;20015;-83
2022/07/07 19:50:51;;;;;;;3.92;3.63;;;;;;;;;;6218341;23;20314;-83
2022/07/07 19:53:17;;;;;;;3.47;3.17;;;;;;;;;;6191269;23;20004;-82
2022/07/07 19:55:43;;;;;;;3.72;3.10;;;;;;;;;;6217994;23;20009;-85
2022/07/07 19:58:09;;;;;;;3.40;3.13;;;;;;;;;;6217737;23;20071;-83
2022/07/07 20:00:34;;;;;;;4.72;3.60;;;;;;;;;;6217871;23;20036;-84
2022/07/07 20:03:00;;;;;;;3.83;2.78;;;;;;;;;;6217698;23;20483;-83
2022/07/07 20:05:25;;;;;;;3.13;2.92;;;;;;;;;;6217831;23;20020;-83
2022/07/07 20:07:51;;;;;;;4.93;2.80;;;;;;;;;;6217923;23;20431;-83
2022/07/07 20:10:16;;;;;;;3.42;3.10;;;;;;;;;;6217607;23;20435;-83
2022/07/07 20:12:42;;;;;;;3.03;2.83;;;;;;;;;;6217617;23;20044;-83
2022/07/07 20:15:08;;;;;;;3.45;3.15;;;;;;;;;;6217390;23;20009;-83
2022/07/07 20:17:33;;;;;;;3.33;3.03;;;;;;;;;;6217563;23;20008;-83
2022/07/07 20:19:59;;;;;;;3.25;2.95;;;;;;;;;;6217522;23;20079;-83
2022/07/07 20:22:24;;;;;;;3.55;2.90;;;;;;;;;;6217564;23;20025;-83
2022/07/07 20:24:50;;;;;;;2.53;2.33;;;;;;;;;;6190850;23;20381;-83
2022/07/07 20:27:15;;;;;;;2.63;2.50;;;;;;;;;;6217525;23;20313;-83
2022/07/07 20:29:41;;;;;;;2.60;2.40;;;;;;;;;;6217542;23;20432;-83
2022/07/07 20:32:07;;;;;;;3.17;2.88;;;;;;;;;;6217535;23;20033;-83
2022/07/07 20:34:32;;;;;;;3.75;2.20;;;;;;;;;;6217156;23;20000;-83
2022/07/07 20:36:58;;;;;;;3.08;2.30;;;;;;;;;;6190820;23;20339;-83
2022/07/07 20:39:24;;;;;;;2.35;2.25;;;;;;;;;;6217359;23;20328;-83
2022/07/07 20:41:50;;;;;;;2.58;2.38;;;;;;;;;;6217528;23;20007;-84
2022/07/07 20:44:15;;;;;;;2.38;2.20;;;;;;;;;;6217329;23;20075;-83
2022/07/07 20:46:41;;;;;;;2.50;2.30;;;;;;;;;;6217243;23;20075;-83
2022/07/07 20:49:07;;;;;;;3.30;2.40;;;;;;;;;;6217476;23;20004;-84
2022/07/07 20:51:32;;;;;;;2.35;2.10;;;;;;;;;;6217088;23;20328;-83
2022/07/07 20:53:58;;;;;;;2.45;2.25;;;;;;;;;;6190381;23;20001;-86
2022/07/07 20:56:23;;;;;;;1.95;1.85;;;;;;;;;;6190512;23;20012;-85
2022/07/07 20:58:49;;;;;;;2.22;2.03;;;;;;;;;;6217293;23;20021;-84
2022/07/07 21:01:15;;;;;;;2.13;1.77;;;;;;;;;;6217107;23;20080;-83
2022/07/07 21:03:41;;;;;;;1.60;1.50;;;;;;;;;;6217230;23;20051;-84
2022/07/07 21:06:09;;;;;;;1.90;1.60;;;;;;;;;;6217218;23;20008;-83
2022/07/07 21:08:35;;;;;;;2.43;1.80;;;;;;;;;;6217483;23;20001;-83
2022/07/07 21:11:00;;;;;;;1.90;1.70;;;;;;;;;;6216994;23;20005;-84
2022/07/07 21:13:26;;;;;;;1.50;1.40;;;;;;;;;;6217049;23;20017;-84
2022/07/07 21:15:51;;;;;;;1.73;1.63;;;;;;;;;;6216905;23;20320;-84
2022/07/07 21:18:17;;;;;;;1.60;1.33;;;;;;;;;;6216908;23;20005;-83
2022/07/07 21:20:43;;;;;;;1.15;1.15;;;;;;;;;;6217351;23;20008;-84
2022/07/07 21:23:08;;;;;;;1.42;1.33;;;;;;;;;;6216919;23;20028;-84
2022/07/07 21:25:34;;;;;;;1.42;1.30;;;;;;;;;;6217229;23;20001;-84
2022/07/07 21:28:00;;;;;;;1.70;1.10;;;;;;;;;;6216663;23;20023;-82
2022/07/07 21:30:25;;;;;;;1.20;1.10;;;;;;;;;;6216627;23;20028;-87
2022/07/07 21:32:51;;;;;;;0.90;0.90;;;;;;;;;;6216967;23;20439;-86
2022/07/07 21:35:16;;;;;;;1.85;1.20;;;;;;;;;;6190455;23;20012;-86
2022/07/07 21:37:42;;;;;;;1.13;1.02;;;;;;;;;;6190547;23;20004;-92
2022/07/07 21:40:08;;;;;;;1.85;1.10;;;;;;;;;;6217216;23;20001;-87
2022/07/07 21:42:34;;;;;;;1.05;1.05;;;;;;;;;;6216989;23;20029;-88
2022/07/07 21:45:00;;;;;;;1.20;1.10;;;;;;;;;;6216866;23;20084;-87
2022/07/07 21:47:26;;;;;;;0.85;0.85;;;;;;;;;;6216324;23;20044;-87
2022/07/07 21:49:52;;;;;;;0.85;0.80;;;;;;;;;;6190379;23;20001;-88
2022/07/07 21:52:19;;;;;;;0.85;0.85;;;;;;;;;;6217057;23;20005;-90
2022/07/07 21:54:44;;;;;;;1.08;1.08;;;;;;;;;;6216959;23;20005;-89
2022/07/07 21:57:10;;;;;;;2.03;1.77;;;;;;;;;;6189998;23;20009;-88
2022/07/07 21:59:36;;;;;;;2.25;2.05;;;;;;;;;;6216708;23;20005;-88
2022/07/07 22:02:02;;;;;;;3.22;2.42;;;;;;;;;;6216766;23;20001;-87
2022/07/07 22:07:11;;;;;;;3.42;2.90;;;;;;;;;;6217058;23;20059;-88
2022/07/07 22:09:43;;;;;;;2.55;2.20;;;;;;;;;;6216935;23;20001;-88
2022/07/07 22:12:11;;;;;;;2.58;2.30;;;;;;;;;;6216768;23;20008;-90
2022/07/07 22:14:38;;;;;;;3.33;2.30;;;;;;;;;;6217150;23;20423;-90
2022/07/07 22:17:04;;;;;;;2.15;2.03;;;;;;;;;;6216914;23;20035;-89
2022/07/07 22:19:30;;;;;;;2.28;2.13;;;;;;;;;;6190547;23;20087;-89
2022/07/07 22:21:56;;;;;;;2.35;2.10;;;;;;;;;;6216867;23;20071;-90
2022/07/07 22:24:22;;;;;;;3.10;2.80;;;;;;;;;;6217084;23;20005;-89
2022/07/07 22:26:47;;;;;;;2.90;2.55;;;;;;;;;;6216914;23;20014;-90
2022/07/07 22:29:13;;;;;;;3.22;2.92;;;;;;;;;;6216933;23;19997;-90
2022/07/07 22:31:38;;;;;;;3.58;3.28;;;;;;;;;;6190416;23;20008;-91
2022/07/07 22:34:04;;;;;;;3.25;3.00;;;;;;;;;;6217022;23;20306;-90
2022/07/07 22:36:31;;;;;;;3.90;2.75;;;;;;;;;;6190424;23;20027;-90
2022/07/07 22:38:57;;;;;;;2.75;2.55;;;;;;;;;;6216938;23;20080;-90
2022/07/07 22:41:23;;;;;;;2.38;2.20;;;;;;;;;;6216572;23;20038;-90
2022/07/07 22:43:48;;;;;;;3.70;3.00;;;;;;;;;;6190451;23;20008;-90
2022/07/07 22:46:14;;;;;;;3.63;2.90;;;;;;;;;;6216937;23;20008;-90
2022/07/07 22:48:40;;;;;;;3.03;2.72;;;;;;;;;;6216880;23;20035;-89
2022/07/07 22:51:09;;;;;;;2.75;2.42;;;;;;;;;;6190428;23;20317;-90
2022/07/07 22:53:37;;;;;;;2.20;2.10;;;;;;;;;;6216881;23;20007;-89
2022/07/07 22:56:04;;;;;;;1.90;1.80;;;;;;;;;;6189922;23;20424;-89
2022/07/07 22:58:30;;;;;;;2.22;2.00;;;;;;;;;;6216283;23;20001;-91
2022/07/07 23:00:59;;;;;;;1.77;1.67;;;;;;;;;;6216832;23;20071;-90
2022/07/07 23:03:25;;;;;;;;;;;;;;;;;;6217134;23;20468;-89
2022/07/07 23:05:51;;;;;;;1.63;1.52;;;;;;;;;;6190220;23;19982;-89
2022/07/07 23:08:16;;;;;;;1.58;1.48;;;;;;;;;;6216554;23;20001;-90
2022/07/07 23:10:42;;;;;;;1.88;1.75;;;;;;;;;;6216487;23;20012;-89
2022/07/07 23:13:07;;;;;;;1.80;1.55;;;;;;;;;;6216328;23;20013;-87
2022/07/07 23:15:32;;;;;;;1.95;1.80;;;;;;;;;;6189868;23;20011;-89
2022/07/07 23:17:58;;;;;;;2.72;1.42;;;;;;;;;;6216487;23;20004;-90
2022/07/07 23:20:23;;;;;;;1.95;1.60;;;;;;;;;;6189919;23;20354;-88
2022/07/07 23:22:49;;;;;;;2.30;2.10;;;;;;;;;;6216571;23;20063;-90
2022/07/07 23:25:14;;;;;;;3.05;1.75;;;;;;;;;;6216184;23;20076;-90
2022/07/07 23:27:40;;;;;;;2.10;2.00;;;;;;;;;;6189972;23;20004;-90
2022/07/07 23:30:07;;;;;;;2.35;2.20;;;;;;;;;;6216380;23;20009;-88
2022/07/07 23:32:32;;;;;;;2.75;2.08;;;;;;;;;;6216418;23;20009;-90
2022/07/07 23:34:58;;;;;;;3.10;2.60;;;;;;;;;;6216253;23;20305;-89
2022/07/07 23:37:23;;;;;;;2.80;2.50;;;;;;;;;;6216417;23;20096;-89
2022/07/07 23:39:49;;;;;;;3.28;2.80;;;;;;;;;;6189804;23;20481;-90
2022/07/07 23:42:14;;;;;;;3.75;3.28;;;;;;;;;;6190079;23;20038;-90
2022/07/07 23:44:39;;;;;;;2.75;2.55;;;;;;;;;;6189760;23;20090;-90
2022/07/07 23:47:05;;;;;;;4.18;3.08;;;;;;;;;;6216878;23;20060;-91
2022/07/07 23:49:30;;;;;;;2.92;2.70;;;;;;;;;;6216492;23;20005;-90
2022/07/07 23:51:56;;;;;;;3.13;2.78;;;;;;;;;;6216259;23;20080;-91
2022/07/07 23:54:21;;;;;;;4.55;2.50;;;;;;;;;;6189738;23;20051;-90
2022/07/07 23:56:47;;;;;;;3.17;2.58;;;;;;;;;;6189654;23;20055;-89
2022/07/07 23:59:12;;;;;;;3.17;2.58;;;;;;;;;;6216532;23;20540;-89
